Time;durP1;ratioP1;P1;durP2;ratioP2;P2;SDS_P1;SDS_P2;PMS_P1;PMS_P2;Temp;Humidity;BMP_temperature;BMP_pressure;BME280_temperature;BME280_humidity;BME280_pressure;Samples;Min_cycle;Max_cycle;Signal;HPM_P1;HPM_P2
2022/03/23 00:00:53;;;;;;;13.52;6.10;;;7.50;96.70;;;7.54;61.57;102349.16;5337651;22;20536;-70
2022/03/23 00:03:25;;;;;;;13.18;6.13;;;7.50;97.00;;;7.49;61.94;102347.94;5228215;28;20075;-71
2022/03/23 00:05:57;;;;;;;17.73;6.40;;;7.50;97.30;;;7.43;61.74;102342.28;5227292;28;20049;-69
2022/03/23 00:08:29;;;;;;;15.23;6.68;;;7.40;97.40;;;7.37;61.98;102347.97;5229108;28;20059;-69
2022/03/23 00:11:03;;;;;;;13.40;5.80;;;7.40;97.70;;;7.33;62.27;102346.84;5229995;28;20049;-69
2022/03/23 00:13:36;;;;;;;14.68;6.35;;;7.30;98.10;;;7.28;62.10;102348.19;5237979;28;20126;-69
2022/03/23 00:16:08;;;;;;;12.45;5.75;;;7.30;98.20;;;7.23;62.82;102357.31;5248507;28;20067;-69
2022/03/23 00:18:40;;;;;;;14.00;5.70;;;7.20;98.50;;;7.20;62.65;102349.34;5247861;28;20083;-69
2022/03/23 00:21:12;;;;;;;13.98;6.15;;;7.20;98.70;;;7.17;62.77;102364.69;5236247;28;20048;-69
2022/03/23 00:23:44;;;;;;;12.05;5.78;;;7.20;98.70;;;7.11;62.61;102351.28;5227788;28;20057;-69
2022/03/23 00:26:18;;;;;;;11.80;5.88;;;7.10;98.70;;;7.08;62.81;102353.63;5227529;28;20068;-69
2022/03/23 00:28:50;;;;;;;12.07;6.03;;;7.10;98.70;;;7.05;62.49;102359.50;5227162;28;20139;-69
2022/03/23 00:31:22;;;;;;;11.15;4.90;;;7.10;98.70;;;7.05;62.84;102353.41;5227443;28;20417;-68
2022/03/23 00:33:55;;;;;;;12.50;5.57;;;7.00;98.80;;;7.05;62.49;102350.81;5227404;28;20071;-69
2022/03/23 00:36:27;;;;;;;12.38;5.22;;;7.00;98.90;;;7.03;63.09;102352.38;5227846;28;20063;-70
2022/03/23 00:38:59;;;;;;;11.25;5.18;;;7.00;99.00;;;7.01;62.82;102360.03;5227277;28;20049;-69
2022/03/23 00:41:33;;;;;;;13.40;6.70;;;7.00;99.00;;;6.97;63.26;102354.50;5227287;28;20508;-68
2022/03/23 00:44:05;;;;;;;10.90;5.22;;;7.00;99.10;;;6.94;63.14;102360.38;5227249;28;20366;-69
2022/03/23 00:46:37;;;;;;;10.57;5.60;;;6.90;99.40;;;6.91;63.54;102361.84;5227265;28;20056;-69
2022/03/23 00:49:09;;;;;;;11.30;5.45;;;6.90;99.40;;;6.87;63.59;102359.81;5226781;28;20049;-69
2022/03/23 00:51:42;;;;;;;14.45;5.95;;;6.90;99.50;;;6.79;63.63;102354.97;5227144;28;20044;-69
2022/03/23 00:54:14;;;;;;;12.10;6.00;;;6.90;99.60;;;6.78;64.04;102357.41;5226912;28;20052;-69
2022/03/23 00:56:48;;;;;;;12.73;6.03;;;6.80;99.60;;;6.74;64.03;102364.09;5227272;28;20198;-69
2022/03/23 00:59:20;;;;;;;12.32;5.80;;;6.80;99.90;;;6.71;63.80;102355.16;5226790;28;20057;-69
2022/03/23 01:01:52;;;;;;;11.13;6.07;;;6.70;99.70;;;6.68;64.03;102357.53;5226096;28;20056;-69
2022/03/23 01:04:24;;;;;;;11.50;6.13;;;6.70;99.80;;;6.64;64.34;102352.91;5227177;28;20397;-69
2022/03/23 01:06:57;;;;;;;10.70;5.68;;;6.70;99.80;;;6.60;64.29;102354.38;5226778;28;20052;-70
2022/03/23 01:09:29;;;;;;;12.65;5.95;;;6.60;99.80;;;6.58;64.01;102353.34;5226157;28;20055;-69
2022/03/23 01:12:03;;;;;;;10.75;5.70;;;6.60;99.70;;;6.59;64.27;102364.63;5226894;28;20055;-69
2022/03/23 01:14:35;;;;;;;12.68;5.28;;;6.60;99.90;;;6.59;64.12;102364.63;5227023;28;20402;-69
2022/03/23 01:17:08;;;;;;;13.38;5.93;;;6.60;99.90;;;6.54;63.98;102361.69;5225958;28;20045;-69
2022/03/23 01:19:40;;;;;;;12.15;5.88;;;6.60;99.90;;;6.49;63.92;102363.00;5227440;28;20512;-69
2022/03/23 01:22:12;;;;;;;11.43;5.35;;;6.50;99.90;;;6.44;64.51;102359.16;5226180;28;20131;-70
2022/03/23 01:24:44;;;;;;;11.32;5.45;;;6.50;99.90;;;6.41;64.92;102359.84;5229297;28;20048;-69
2022/03/23 01:27:17;;;;;;;10.10;5.85;;;6.50;99.90;;;6.36;64.85;102361.19;5226541;28;20422;-69
2022/03/23 01:29:49;;;;;;;12.43;5.55;;;6.40;99.90;;;6.31;65.50;102356.44;5226776;28;20070;-69
2022/03/23 01:32:21;;;;;;;11.82;5.88;;;6.40;99.90;;;6.28;65.93;102354.50;5226561;28;20492;-69
2022/03/23 01:34:53;;;;;;;11.38;5.80;;;6.30;99.90;;;6.27;66.21;102354.41;5228323;28;20045;-70
2022/03/23 01:37:25;;;;;;;15.38;6.53;;;6.30;99.90;;;6.23;66.20;102358.44;5240390;28;20044;-69
2022/03/23 01:39:57;;;;;;;11.77;6.18;;;6.30;99.90;;;6.21;66.49;102360.91;5226009;28;20045;-71
2022/03/23 01:42:31;;;;;;;14.82;6.30;;;6.30;99.90;;;6.19;66.69;102359.91;5231668;28;20041;-71
2022/03/23 01:45:03;;;;;;;13.82;5.78;;;6.20;99.90;;;6.19;66.49;102361.56;5233105;28;20060;-70
2022/03/23 01:47:37;;;;;;;14.05;5.32;;;6.30;99.90;;;6.16;66.81;102357.06;5221146;28;20060;-70
2022/03/23 01:50:10;;;;;;;11.80;5.53;;;6.20;99.90;;;6.15;66.67;102351.78;5224860;28;20052;-68
2022/03/23 01:52:42;;;;;;;13.13;5.32;;;6.20;99.90;;;6.14;66.61;102348.28;5225588;28;20053;-69
2022/03/23 01:55:17;;;;;;;11.35;5.75;;;6.20;99.90;;;6.14;66.30;102348.28;5222223;28;20493;-69
2022/03/23 01:57:52;;;;;;;13.32;6.32;;;6.20;99.90;;;6.06;65.25;102345.84;5261902;28;20056;-69
2022/03/23 02:00:28;;;;;;;12.57;6.43;;;6.10;99.90;;;5.99;64.67;102341.88;5267196;28;20055;-70
2022/03/23 02:03:00;;;;;;;12.57;6.05;;;6.10;99.90;;;5.99;64.46;102339.31;5268294;28;20472;-69
2022/03/23 02:05:32;;;;;;;13.02;6.25;;;6.10;99.90;;;6.08;64.52;102350.41;5267258;28;20052;-70
2022/03/23 02:08:05;;;;;;;13.48;6.05;;;6.20;99.90;;;6.13;64.52;102350.72;5265584;28;20048;-69
2022/03/23 02:10:37;;;;;;;14.07;6.43;;;6.20;99.90;;;6.09;64.84;102344.41;5267693;28;20127;-70
2022/03/23 02:13:10;;;;;;;10.82;5.60;;;6.20;99.90;;;6.09;65.07;102348.69;5266951;28;20055;-70
2022/03/23 02:15:42;;;;;;;11.70;5.72;;;6.10;99.90;;;6.06;65.03;102345.84;5267360;28;20054;-70
2022/03/23 02:18:14;;;;;;;14.23;5.88;;;6.10;99.90;;;6.00;65.50;102343.72;5256902;28;20048;-70
2022/03/23 02:20:46;;;;;;;14.48;6.07;;;6.10;99.90;;;5.95;65.63;102345.94;5242887;28;20049;-69
2022/03/23 02:23:20;;;;;;;12.23;5.93;;;6.10;99.90;;;5.91;65.47;102338.72;5246218;28;20396;-70
2022/03/23 02:26:01;;;;;;;16.20;6.55;;;6.00;99.90;;;5.90;65.01;102338.56;5246674;28;20504;-70
2022/03/23 02:28:34;;;;;;;15.23;6.55;;;6.00;99.90;;;5.92;64.64;102340.50;5245984;28;20067;-70
2022/03/23 02:31:07;;;;;;;13.95;6.28;;;6.00;99.90;;;5.99;64.42;102345.38;5246423;28;20476;-70
2022/03/23 02:33:39;;;;;;;15.65;6.60;;;6.00;99.90;;;6.03;64.60;102333.59;5246193;28;20051;-70
2022/03/23 02:36:12;;;;;;;15.32;6.28;;;6.10;99.90;;;6.04;64.83;102337.09;5246681;28;20477;-70
2022/03/23 02:38:45;;;;;;;13.82;5.80;;;6.00;99.90;;;5.99;65.06;102337.63;5245624;28;20049;-70
2022/03/23 02:41:17;;;;;;;14.05;6.28;;;6.10;99.90;;;5.95;65.34;102334.69;5246093;28;20820;-70
2022/03/23 02:43:50;;;;;;;11.80;5.88;;;6.00;99.90;;;5.91;65.79;102337.81;5246247;28;20150;-71
2022/03/23 02:46:22;;;;;;;13.60;6.28;;;6.00;99.90;;;5.87;65.72;102340.94;5246253;28;20048;-70
2022/03/23 02:48:54;;;;;;;12.48;6.25;;;6.00;99.90;;;5.80;65.47;102333.44;5245547;28;20072;-70
2022/03/23 02:51:26;;;;;;;13.70;6.22;;;5.90;99.90;;;5.75;65.57;102329.63;5246156;28;20526;-70
2022/03/23 03:02:45;;;;;;;;;;;5.70;99.90;;;5.61;66.64;102334.59;5246599;28;20106;-70
2022/03/23 03:05:17;;;;;;;14.30;6.78;;;5.70;99.90;;;5.59;66.44;102337.84;5245995;28;19921;-70
2022/03/23 03:10:40;;;;;;;12.23;6.07;;;5.60;99.90;;;5.54;67.20;102345.25;5246011;28;20044;-70
2022/03/23 03:13:12;;;;;;;15.27;6.22;;;5.60;99.90;;;5.51;66.89;102339.81;5245935;28;20040;-70
2022/03/23 03:15:44;;;;;;;12.65;6.47;;;5.60;99.90;;;5.48;67.33;102338.66;5245889;28;20048;-70
2022/03/23 03:18:17;;;;;;;14.75;6.45;;;5.60;99.90;;;5.45;67.40;102344.50;5245453;28;20048;-70
2022/03/23 03:20:48;;;;;;;13.30;7.07;;;5.50;99.90;;;5.43;67.65;102341.81;5245626;28;20489;-70
2022/03/23 03:23:22;;;;;;;18.08;6.35;;;5.50;99.90;;;5.43;67.11;102336.63;5245746;28;20047;-70
2022/03/23 03:25:55;;;;;;;13.20;6.65;;;5.50;99.90;;;5.48;66.92;102344.75;5248760;28;20060;-70
2022/03/23 03:28:27;;;;;;;15.98;6.18;;;5.50;99.90;;;5.51;66.55;102346.69;5249375;28;20488;-70
2022/03/23 03:30:59;;;;;;;12.95;7.03;;;5.60;99.90;;;5.52;66.25;102345.91;5249636;28;20060;-70
2022/03/23 03:33:31;;;;;;;13.77;6.60;;;5.60;99.90;;;5.50;66.22;102345.78;5250098;28;20044;-70
2022/03/23 03:36:05;;;;;;;15.85;7.03;;;5.60;99.90;;;5.45;66.64;102336.75;5249994;28;20060;-70
2022/03/23 03:38:39;;;;;;;12.10;5.95;;;5.60;99.90;;;5.39;66.67;102344.91;5249492;28;20060;-69
2022/03/23 03:41:12;;;;;;;11.50;6.50;;;5.50;99.90;;;5.33;66.92;102348.69;5249879;28;20045;-70
2022/03/23 03:43:44;;;;;;;14.80;6.80;;;5.50;99.90;;;5.28;67.27;102348.34;5249302;28;20087;-70
2022/03/23 03:46:17;;;;;;;13.55;6.22;;;5.40;99.90;;;5.25;67.93;102357.50;5249789;28;20044;-69
2022/03/23 03:48:49;;;;;;;13.75;5.93;;;5.40;99.90;;;5.20;67.86;102351.97;5236255;28;20049;-70
2022/03/23 03:51:21;;;;;;;14.57;6.75;;;5.30;99.90;;;5.17;68.09;102351.72;5256632;28;20438;-70
2022/03/23 03:53:53;;;;;;;14.35;6.75;;;5.30;99.90;;;5.10;68.36;102358.09;5244435;28;20470;-69
2022/03/23 03:56:27;;;;;;;15.57;7.25;;;5.20;99.90;;;5.07;68.29;102355.22;5234089;28;20045;-70
2022/03/23 03:58:59;;;;;;;15.50;7.32;;;5.20;99.90;;;5.03;68.27;102358.38;5238380;28;20054;-70
2022/03/23 04:01:30;;;;;;;14.13;7.03;;;5.20;99.90;;;5.00;68.29;102364.94;5248765;28;20045;-70
2022/03/23 04:04:02;;;;;;;16.90;7.45;;;5.10;99.90;;;4.95;68.43;102351.66;5249220;28;20051;-70
2022/03/23 04:06:34;;;;;;;15.95;6.57;;;5.10;99.90;;;4.92;68.43;102354.00;5248922;28;20048;-69
2022/03/23 04:09:06;;;;;;;12.65;7.05;;;5.00;99.90;;;4.90;68.54;102355.56;5248305;28;20051;-70
2022/03/23 04:11:40;;;;;;;14.50;6.50;;;5.00;99.90;;;4.88;68.58;102357.09;5248714;28;20051;-70
2022/03/23 04:14:12;;;;;;;15.35;6.43;;;5.00;99.90;;;4.88;68.82;102359.66;5249101;28;20051;-70
2022/03/23 04:16:44;;;;;;;12.85;6.18;;;5.00;99.90;;;4.86;69.24;102363.81;5248627;28;20056;-70
2022/03/23 04:19:16;;;;;;;14.02;6.90;;;5.00;99.90;;;4.83;69.29;102355.84;5247945;28;20052;-70
2022/03/23 04:21:48;;;;;;;16.98;7.28;;;5.00;99.90;;;4.82;69.67;102364.34;5248924;28;20489;-70
2022/03/23 04:24:20;;;;;;;14.18;7.28;;;4.90;99.90;;;4.80;69.61;102359.06;5248648;28;20051;-70
2022/03/23 04:26:53;;;;;;;11.80;5.93;;;4.90;99.90;;;4.79;70.15;102366.69;5248623;28;20056;-70
2022/03/23 04:29:26;;;;;;;15.07;7.60;;;4.90;99.90;;;4.77;69.98;102369.16;5247875;28;20047;-68
2022/03/23 04:31:58;;;;;;;14.35;6.90;;;4.90;99.90;;;4.73;70.01;102372.25;5248430;28;20084;-69
2022/03/23 04:34:30;;;;;;;13.27;6.72;;;4.90;99.90;;;4.69;70.14;102374.44;5230775;28;20041;-69
2022/03/23 04:37:02;;;;;;;15.00;6.38;;;4.80;99.90;;;4.66;70.46;102379.34;5226522;28;20063;-69
2022/03/23 04:39:34;;;;;;;18.33;7.60;;;4.80;99.90;;;4.62;70.53;102376.50;5227799;28;20401;-68
2022/03/23 04:42:08;;;;;;;15.77;6.95;;;4.80;99.90;;;4.60;70.83;102385.81;5227521;28;20049;-70
2022/03/23 04:44:40;;;;;;;13.82;6.40;;;4.70;99.90;;;4.57;70.88;102384.66;5227693;28;20398;-70
2022/03/23 04:47:12;;;;;;;15.93;6.45;;;4.70;99.90;;;4.54;70.78;102385.28;5226946;28;20052;-69
2022/03/23 04:49:44;;;;;;;15.70;7.13;;;4.70;99.90;;;4.51;71.09;102395.38;5227566;28;20045;-70
2022/03/23 04:52:16;;;;;;;15.77;6.47;;;4.70;99.90;;;4.49;71.10;102386.56;5227562;28;20059;-69
2022/03/23 04:54:48;;;;;;;14.25;6.97;;;4.60;99.90;;;4.46;71.00;102386.34;5227319;28;20075;-69
2022/03/23 04:57:22;;;;;;;16.88;6.55;;;4.60;99.90;;;4.46;70.73;102380.25;5226900;28;20048;-70
2022/03/23 04:59:54;;;;;;;14.50;6.60;;;4.60;99.90;;;4.44;70.71;102387.91;5227166;28;20405;-70
2022/03/23 05:02:27;;;;;;;14.90;6.63;;;4.60;99.90;;;4.45;70.53;102392.28;5227450;28;20379;-70
2022/03/23 05:04:59;;;;;;;16.40;7.30;;;4.60;99.90;;;4.47;70.62;102390.72;5227039;28;20056;-69
2022/03/23 05:07:31;;;;;;;14.88;6.85;;;4.60;99.90;;;4.47;70.37;102393.31;5226788;28;20414;-70
2022/03/23 05:10:04;;;;;;;15.55;6.93;;;4.60;99.90;;;4.46;70.37;102391.50;5227122;28;20045;-69
2022/03/23 05:12:37;;;;;;;18.55;7.10;;;4.60;99.90;;;4.43;70.26;102401.53;5226900;28;20045;-70
2022/03/23 05:15:10;;;;;;;15.52;7.18;;;4.60;99.90;;;4.40;70.13;102398.72;5227220;28;20049;-70
2022/03/23 05:17:44;;;;;;;17.90;7.25;;;4.50;99.90;;;4.36;70.74;102394.06;5226382;28;20067;-70
2022/03/23 05:20:18;;;;;;;13.25;6.55;;;4.50;99.90;;;4.35;70.37;102400.00;5226987;28;20045;-70
2022/03/23 05:22:50;;;;;;;14.57;6.82;;;4.50;99.90;;;4.33;70.82;102392.13;5227087;28;20045;-70
2022/03/23 05:25:22;;;;;;;18.73;7.88;;;4.50;99.90;;;4.35;70.57;102400.91;5227123;28;20045;-70
2022/03/23 05:27:55;;;;;;;13.57;6.72;;;4.50;99.90;;;4.33;70.63;102394.72;5226041;28;20048;-70
2022/03/23 05:30:27;;;;;;;16.48;6.75;;;4.50;99.90;;;4.32;70.51;102397.19;5226712;28;20045;-69
2022/03/23 05:32:59;;;;;;;15.52;7.30;;;4.50;99.90;;;4.31;70.36;102403.13;5226924;28;20045;-69
2022/03/23 05:35:31;;;;;;;14.07;6.60;;;4.40;99.90;;;4.32;70.70;102398.06;5226662;28;20056;-70
2022/03/23 05:38:04;;;;;;;19.08;6.93;;;4.40;99.90;;;4.33;70.84;102404.16;5226140;28;20053;-69
2022/03/23 05:40:36;;;;;;;14.68;6.60;;;4.50;99.90;;;4.34;70.69;102399.09;5226550;28;20049;-70
2022/03/23 05:43:10;;;;;;;13.93;6.93;;;4.50;99.90;;;4.37;70.89;102403.66;5226391;28;20045;-70
2022/03/23 05:45:42;;;;;;;14.90;7.00;;;4.50;99.90;;;4.38;70.94;102408.03;5226543;28;20433;-69
2022/03/23 05:48:14;;;;;;;17.92;7.50;;;4.50;99.90;;;4.40;70.98;102411.63;5225877;28;20061;-70
2022/03/23 05:50:46;;;;;;;15.95;7.03;;;4.50;99.90;;;4.44;70.84;102402.50;5226323;28;20049;-70
2022/03/23 05:53:18;;;;;;;12.15;6.32;;;4.60;99.90;;;4.45;71.00;102404.28;5226489;28;20051;-69
2022/03/23 05:55:50;;;;;;;19.02;7.32;;;4.50;99.90;;;4.51;70.72;102413.47;5226514;28;20429;-70
2022/03/23 05:58:23;;;;;;;16.27;6.65;;;4.60;99.90;;;4.60;70.21;102411.63;5225991;28;20548;-69
2022/03/23 06:00:55;;;;;;;15.02;7.03;;;4.70;99.90;;;4.67;69.93;102413.06;5250035;23;20052;-81
2022/03/23 06:03:27;;;;;;;16.60;7.05;;;4.70;99.90;;;4.72;69.73;102405.69;5230678;28;20484;-82
2022/03/23 06:06:00;;;;;;;16.20;6.55;;;4.70;99.90;;;4.75;69.48;102405.94;5232742;28;20055;-82
2022/03/23 06:08:32;;;;;;;18.13;6.97;;;4.80;99.90;;;4.82;69.83;102408.25;5323027;23;20047;-69
2022/03/23 06:11:04;;;;;;;15.45;7.43;;;4.90;99.90;;;4.88;69.45;102409.69;5262601;28;20051;-69
2022/03/23 06:13:37;;;;;;;16.40;6.75;;;4.90;99.90;;;4.94;69.48;102409.28;5268089;28;20050;-69
2022/03/23 06:16:09;;;;;;;15.45;7.47;;;5.00;99.90;;;5.02;69.42;102413.44;5267565;28;20048;-67
2022/03/23 06:18:41;;;;;;;14.00;6.95;;;5.10;99.90;;;5.08;69.14;102411.31;5267599;28;20050;-67
2022/03/23 06:21:13;;;;;;;16.75;6.88;;;5.10;99.90;;;5.16;68.94;102412.88;5267936;28;20417;-68
2022/03/23 06:23:45;;;;;;;16.77;7.88;;;5.20;99.90;;;5.57;69.56;102423.09;5267541;28;20097;-71
2022/03/23 06:26:17;;;;;;;15.88;7.38;;;5.30;99.90;;;7.19;67.22;102425.34;5267643;28;20075;-69
2022/03/23 06:28:51;;;;;;;18.08;7.13;;;6.10;99.90;;;9.12;60.54;102419.03;5267188;28;20055;-69
2022/03/23 06:31:23;;;;;;;14.70;6.70;;;7.30;99.90;;;10.92;53.56;102418.22;5267542;28;20052;-68
2022/03/23 06:33:55;;;;;;;14.05;6.80;;;8.70;98.60;;;12.44;48.29;102418.97;5267736;28;20052;-72
2022/03/23 06:36:27;;;;;;;14.32;7.63;;;10.10;93.50;;;13.77;44.03;102425.72;5267597;28;20052;-70
2022/03/23 06:38:59;;;;;;;15.52;6.88;;;11.40;86.30;;;14.90;41.29;102425.63;5267012;28;20052;-71
2022/03/23 06:41:32;;;;;;;15.43;7.38;;;12.50;77.70;;;15.87;38.43;102422.63;5267009;28;20052;-71
2022/03/23 06:44:06;;;;;;;15.82;7.55;;;13.50;70.60;;;16.80;36.28;102427.84;5267058;28;20048;-71
2022/03/23 06:46:38;;;;;;;18.00;7.93;;;14.40;65.30;;;17.66;34.50;102425.44;5267263;28;20048;-72
2022/03/23 06:49:10;;;;;;;14.05;7.32;;;15.30;61.70;;;18.44;32.69;102433.97;5266468;28;20056;-71
2022/03/23 06:51:41;;;;;;;15.75;8.20;;;16.10;58.30;;;19.14;31.41;102435.94;5267292;28;20056;-71
2022/03/23 06:54:13;;;;;;;16.70;9.48;;;16.80;55.80;;;19.88;30.22;102437.72;5267294;28;20127;-72
2022/03/23 06:56:50;;;;;;;14.00;7.50;;;17.50;53.90;;;20.50;29.63;102436.44;5266666;28;20052;-72
2022/03/23 06:59:23;;;;;;;16.35;7.97;;;18.10;53.00;;;21.05;28.61;102441.88;5266171;28;20107;-70
2022/03/23 07:01:55;;;;;;;14.57;7.60;;;18.60;51.50;;;21.48;28.11;102450.59;5267002;28;20384;-67
2022/03/23 07:04:27;;;;;;;18.95;7.45;;;19.00;50.60;;;21.93;27.11;102451.28;5266831;28;20058;-70
2022/03/23 07:06:59;;;;;;;15.60;8.40;;;19.50;49.20;;;22.35;26.42;102450.09;5266825;28;20798;-69
2022/03/23 07:09:34;;;;;;;17.27;7.97;;;19.90;47.90;;;22.86;25.88;102470.22;5266511;28;20572;-69
2022/03/23 07:12:09;;;;;;;16.75;8.75;;;20.40;47.10;;;23.34;25.17;102455.56;5266886;28;20055;-66
2022/03/23 07:14:42;;;;;;;16.15;8.75;;;20.80;46.10;;;23.75;23.84;102455.06;5267034;28;20036;-70
2022/03/23 07:17:16;;;;;;;14.60;8.32;;;21.30;44.60;;;24.04;22.72;102455.22;5266098;28;20052;-68
2022/03/23 07:19:48;;;;;;;16.58;8.48;;;21.60;43.10;;;24.31;22.82;102454.44;5266948;28;20105;-69
2022/03/23 07:22:20;;;;;;;16.42;8.25;;;21.90;42.70;;;24.52;22.36;102457.25;5267012;28;20420;-69
2022/03/23 07:24:52;;;;;;;18.42;8.20;;;22.10;42.30;;;24.73;22.22;102468.84;5266815;28;20044;-68
2022/03/23 07:27:24;;;;;;;15.18;8.20;;;22.30;41.90;;;25.03;21.64;102460.88;5265509;28;20408;-70
2022/03/23 07:29:57;;;;;;;13.80;7.65;;;22.50;41.10;;;25.19;21.15;102466.28;5267003;28;20054;-69
2022/03/23 07:32:29;;;;;;;16.65;8.40;;;22.70;40.70;;;25.55;20.77;102458.25;5267062;28;20051;-70
2022/03/23 07:35:01;;;;;;;15.82;8.60;;;23.00;40.40;;;25.90;20.75;102457.34;5266754;28;20048;-69
2022/03/23 07:37:33;;;;;;;15.05;8.70;;;23.30;40.10;;;26.12;20.13;102460.84;5265990;28;20051;-70
2022/03/23 07:40:07;;;;;;;15.15;8.48;;;23.50;39.30;;;26.30;20.16;102465.25;5266770;28;20511;-71
2022/03/23 07:42:39;;;;;;;15.77;8.57;;;23.80;39.30;;;26.47;19.53;102468.75;5266650;28;20416;-69
2022/03/23 07:45:13;;;;;;;15.88;8.48;;;23.90;38.60;;;26.51;19.61;102466.06;5266585;28;20056;-70
2022/03/23 07:47:46;;;;;;;18.13;8.90;;;24.00;38.40;;;26.50;19.51;102463.41;5266213;28;20051;-69
2022/03/23 07:50:18;;;;;;;16.48;8.82;;;24.00;38.20;;;26.77;19.41;102465.91;5266479;28;20501;-72
2022/03/23 07:52:50;;;;;;;16.98;9.25;;;24.20;38.40;;;26.88;19.12;102468.53;5266409;28;20052;-70
2022/03/23 07:55:22;;;;;;;17.15;8.98;;;24.30;38.00;;;27.14;18.97;102470.16;5266539;28;20472;-72
2022/03/23 07:57:54;;;;;;;17.02;8.52;;;24.50;37.80;;;27.37;18.78;102473.53;5265918;28;20044;-70
2022/03/23 08:00:27;;;;;;;19.20;8.93;;;24.70;37.60;;;27.20;18.66;102471.00;5266652;28;20048;-70
2022/03/23 08:02:59;;;;;;;14.85;9.63;;;24.70;37.00;;;27.18;18.65;102471.91;5266576;28;20485;-70
2022/03/23 08:05:32;;;;;;;15.35;9.13;;;24.70;37.10;;;27.24;18.62;102475.41;5266413;28;20051;-70
2022/03/23 08:08:05;;;;;;;15.43;9.43;;;24.80;37.00;;;27.29;18.77;102481.63;5265780;28;20082;-66
2022/03/23 08:10:40;;;;;;;15.40;9.18;;;24.80;37.10;;;27.35;18.58;102474.44;5245539;28;20075;-68
2022/03/23 08:13:13;;;;;;;16.80;8.98;;;24.80;37.20;;;27.18;18.63;102475.47;5248393;28;20049;-67
2022/03/23 08:15:46;;;;;;;17.80;9.70;;;24.70;36.90;;;27.25;18.81;102477.19;5249067;28;20555;-66
2022/03/23 08:18:21;;;;;;;18.08;8.95;;;24.70;37.10;;;27.39;19.01;102478.88;5248459;28;20045;-68
2022/03/23 08:20:53;;;;;;;18.15;8.68;;;24.80;37.50;;;27.52;19.05;102477.88;5248783;28;20055;-67
2022/03/23 08:23:26;;;;;;;16.98;9.30;;;24.90;37.50;;;27.54;18.47;102476.06;5248753;28;20048;-67
2022/03/23 08:25:58;;;;;;;16.08;8.98;;;25.00;37.10;;;27.54;18.49;102481.41;5248764;28;20048;-67
2022/03/23 08:28:30;;;;;;;15.05;8.95;;;24.90;36.90;;;27.59;18.56;102468.88;5248744;28;20045;-68
2022/03/23 08:31:03;;;;;;;18.33;9.55;;;25.00;37.10;;;27.78;18.89;102478.53;5248983;28;20051;-65
2022/03/23 08:33:35;;;;;;;16.17;9.63;;;25.10;37.30;;;27.67;18.64;102472.38;5248676;28;20055;-67
2022/03/23 08:36:09;;;;;;;18.15;9.70;;;25.20;37.10;;;27.77;18.93;102474.06;5248640;28;20493;-68
2022/03/23 08:38:41;;;;;;;17.58;9.23;;;25.20;37.30;;;27.87;18.92;102479.34;5248386;28;20048;-63
2022/03/23 08:41:13;;;;;;;16.83;9.70;;;25.30;37.50;;;27.73;18.98;102476.81;5248411;28;20060;-62
2022/03/23 08:43:46;;;;;;;16.05;8.95;;;25.30;37.60;;;27.70;19.13;102469.66;5248346;28;20048;-62
2022/03/23 08:46:21;;;;;;;17.65;9.90;;;25.20;37.60;;;27.63;19.04;102459.88;5248574;28;20066;-59
2022/03/23 08:48:53;;;;;;;16.30;9.43;;;25.20;37.50;;;27.66;19.29;102467.91;5248326;28;20548;-62
2022/03/23 08:51:25;;;;;;;18.23;9.20;;;25.10;37.80;;;27.64;19.13;102467.00;5248399;28;20075;-61
2022/03/23 08:53:57;;;;;;;22.05;9.85;;;25.10;38.00;;;27.43;19.01;102472.59;5248078;28;20048;-62
2022/03/23 08:56:29;;;;;;;19.38;10.07;;;25.10;37.30;;;27.33;18.92;102477.16;5248429;28;20065;-62
2022/03/23 08:59:01;;;;;;;16.92;9.75;;;25.00;37.00;;;27.02;19.30;102477.34;5247689;28;20448;-62
2022/03/23 09:01:34;;;;;;;19.10;10.35;;;24.90;37.20;;;26.76;19.44;102474.84;5248228;28;20058;-63
2022/03/23 09:04:08;;;;;;;21.27;10.80;;;24.70;37.30;;;26.42;19.52;102473.25;5248015;28;20060;-63
2022/03/23 09:06:40;;;;;;;18.30;10.82;;;24.50;37.30;;;25.97;20.00;102464.47;5248074;28;20059;-63
2022/03/23 09:09:12;;;;;;;18.35;10.27;;;24.30;37.60;;;25.44;20.44;102468.06;5247179;28;20052;-67
2022/03/23 09:11:44;;;;;;;17.67;10.13;;;23.90;37.90;;;24.98;20.90;102467.13;5247795;28;20045;-66
2022/03/23 09:14:16;;;;;;;20.58;10.65;;;23.70;37.70;;;24.32;21.11;102454.47;5248029;28;20441;-66
2022/03/23 09:16:49;;;;;;;25.42;11.00;;;23.40;38.10;;;23.67;22.19;102456.75;5247706;28;20054;-65
2022/03/23 09:19:21;;;;;;;21.50;11.15;;;22.90;38.70;;;22.90;22.40;102461.41;5247601;28;20053;-64
2022/03/23 09:21:53;;;;;;;23.88;11.15;;;22.40;38.40;;;22.23;23.50;102460.56;5247293;28;20405;-65
2022/03/23 09:24:25;;;;;;;22.98;10.95;;;21.90;39.50;;;21.80;24.30;102454.66;5257685;28;20044;-65
2022/03/23 09:26:57;;;;;;;22.67;11.30;;;21.40;40.30;;;21.59;24.21;102449.03;5266632;28;20047;-65
2022/03/23 09:29:29;;;;;;;24.83;11.32;;;21.20;40.50;;;21.52;24.57;102457.75;5252854;28;20051;-65
2022/03/23 09:32:09;;;;;;;21.90;10.98;;;21.00;41.00;;;21.43;25.52;102446.97;5252870;28;20048;-66
2022/03/23 09:34:41;;;;;;;22.52;11.32;;;20.90;42.30;;;21.39;25.42;102454.00;5249485;28;20059;-65
2022/03/23 09:40:04;;;;;;;23.83;11.05;;;20.70;41.40;;;21.15;25.24;102446.50;5266528;28;20469;-66
2022/03/23 09:42:38;;;;;;;24.25;11.02;;;20.60;41.60;;;21.01;24.95;102456.84;5266446;28;20063;-66
2022/03/23 09:45:14;;;;;;;22.50;11.65;;;20.50;41.20;;;20.77;25.42;102446.69;5267907;28;20040;-66
2022/03/23 09:47:48;;;;;;;20.55;10.88;;;20.30;41.60;;;20.71;25.72;102441.25;5266615;28;20052;-66
2022/03/23 09:50:20;;;;;;;26.08;12.23;;;20.30;41.90;;;20.70;25.92;102449.19;5264752;28;20043;-66
2022/03/23 09:52:53;;;;;;;20.60;10.80;;;20.10;42.30;;;20.68;25.94;102446.53;5267833;28;20051;-65
2022/03/23 09:55:25;;;;;;;22.45;10.48;;;20.10;42.30;;;20.76;26.29;102439.59;5267849;28;20378;-66
2022/03/23 09:58:00;;;;;;;26.23;11.55;;;20.10;42.90;;;20.81;26.27;102440.59;5267968;28;20420;-66
2022/03/23 10:00:38;;;;;;;24.10;11.25;;;20.20;42.80;;;20.88;25.72;102444.25;5268012;28;20142;-66
2022/03/23 10:04:23;;;;;;;24.17;11.25;;;20.20;42.40;;;21.04;26.24;102443.63;5267995;28;20048;-66
2022/03/23 10:07:02;;;;;;;;;;;20.30;42.80;;;21.20;26.14;102439.50;5268348;28;20054;-66
2022/03/23 10:10:31;;;;;;;23.65;10.93;;;20.50;43.00;;;21.36;25.96;102436.28;5267467;28;19926;-66
2022/03/23 10:14:23;;;;;;;21.05;10.02;;;20.60;42.80;;;21.50;25.98;102427.63;5256988;28;20048;-65
2022/03/23 10:17:37;;;;;;;20.75;9.82;;;20.70;42.60;;;21.50;25.87;102430.28;5267707;28;20063;-66
2022/03/23 10:20:12;;;;;;;21.15;10.27;;;20.80;42.60;;;21.48;25.96;102434.69;5259142;28;20044;-67
2022/03/23 10:22:49;;;;;;;24.63;11.00;;;20.80;42.70;;;21.54;26.23;102426.81;5267869;28;20048;-65
2022/03/23 10:25:26;;;;;;;20.60;10.32;;;20.80;43.10;;;21.56;26.52;102428.63;5267489;28;20048;-65
2022/03/23 10:27:59;;;;;;;18.73;8.65;;;20.90;43.40;;;21.49;25.50;102425.84;5267024;28;20048;-66
2022/03/23 10:30:35;;;;;;;19.73;10.23;;;20.80;42.10;;;21.57;25.56;102424.19;5267158;28;20451;-65
2022/03/23 10:33:18;;;;;;;20.17;9.48;;;20.90;42.20;;;21.64;26.47;102424.31;5267707;28;20052;-65
2022/03/23 10:35:55;;;;;;;26.25;10.23;;;20.90;43.50;;;21.64;24.92;102420.78;5266908;28;20047;-68
2022/03/23 10:38:28;;;;;;;22.92;10.55;;;21.00;41.40;;;21.61;25.13;102424.28;5266873;28;20075;-67
2022/03/23 10:41:09;;;;;;;21.13;11.00;;;20.90;41.60;;;21.67;25.99;102421.72;5267075;28;20098;-65
2022/03/23 10:43:41;;;;;;;22.80;11.30;;;21.00;42.70;;;21.78;25.41;102420.97;5266856;28;20535;-65
2022/03/23 10:46:13;;;;;;;22.70;11.10;;;21.00;42.00;;;21.83;25.13;102413.97;5259497;28;20357;-65
2022/03/23 10:48:52;;;;;;;23.30;10.90;;;21.10;41.70;;;22.04;25.34;102416.94;5258394;28;20130;-66
2022/03/23 10:51:32;;;;;;;24.08;11.38;;;21.20;42.10;;;22.23;24.61;102406.56;5267153;28;20044;-65
2022/03/23 10:54:15;;;;;;;22.80;11.07;;;21.30;41.50;;;22.34;25.00;102416.44;5265766;28;20400;-66